Time;durP1;ratioP1;P1;durP2;ratioP2;P2;SDS_P1;SDS_P2;PMS_P1;PMS_P2;Temp;Humidity;BMP_temperature;BMP_pressure;BME280_temperature;BME280_humidity;BME280_pressure;Samples;Min_cycle;Max_cycle;Signal;HPM_P1;HPM_P2
2022/08/04 00:00:44;;;;;;;9.55;2.20;;;;;;;;;;5096056;28;20432;-82
2022/08/04 00:03:19;;;;;;;11.68;2.80;;;;;;;;;;5096360;28;20099;-82
2022/08/04 00:06:02;;;;;;;7.18;2.42;;;;;;;;;;5095954;28;20059;-82
2022/08/04 00:08:34;;;;;;;10.43;3.15;;;;;;;;;;5096032;28;20359;-82
2022/08/04 00:11:01;;;;;;;9.95;3.00;;;;;;;;;;5094960;28;20097;-82
2022/08/04 00:13:28;;;;;;;6.15;3.20;;;;;;;;;;5106063;28;20044;-82
2022/08/04 00:16:05;;;;;;;6.43;2.65;;;;;;;;;;5097581;28;20383;-82
2022/08/04 00:18:45;;;;;;;6.47;2.60;;;;;;;;;;5097814;28;20404;-82
2022/08/04 00:21:16;;;;;;;6.97;2.85;;;;;;;;;;5116453;28;20024;-89
2022/08/04 00:23:43;;;;;;;7.93;2.75;;;;;;;;;;5115705;28;20028;-82
2022/08/04 00:26:09;;;;;;;7.95;2.85;;;;;;;;;;5116427;28;20073;-82
2022/08/04 00:28:37;;;;;;;11.90;2.47;;;;;;;;;;5115897;28;20024;-82
2022/08/04 00:31:04;;;;;;;14.68;3.63;;;;;;;;;;5097661;28;20066;-82
2022/08/04 00:33:30;;;;;;;4.88;2.30;;;;;;;;;;5115895;28;20019;-82
2022/08/04 00:35:56;;;;;;;7.60;2.33;;;;;;;;;;5115772;28;20440;-82
2022/08/04 00:38:23;;;;;;;10.93;2.50;;;;;;;;;;5115809;28;20047;-82
2022/08/04 00:40:55;;;;;;;8.77;2.88;;;;;;;;;;5114408;28;20023;-82
2022/08/04 00:43:28;;;;;;;6.45;2.83;;;;;;;;;;5115679;28;20023;-82
2022/08/04 00:46:12;;;;;;;11.73;2.80;;;;;;;;;;5115619;28;20026;-82
2022/08/04 00:48:41;;;;;;;5.57;2.60;;;;;;;;;;5115635;28;20024;-82
2022/08/04 00:51:15;;;;;;;5.20;2.40;;;;;;;;;;5113976;28;20039;-82
2022/08/04 00:53:56;;;;;;;6.07;2.90;;;;;;;;;;5115541;28;20122;-82
2022/08/04 00:56:51;;;;;;;11.13;3.58;;;;;;;;;;5114159;28;20020;-82
2022/08/04 00:59:28;;;;;;;9.65;2.97;;;;;;;;;;5098270;28;20024;-82
2022/08/04 01:01:58;;;;;;;8.50;2.75;;;;;;;;;;5115632;28;20051;-82
2022/08/04 01:04:27;;;;;;;6.78;2.88;;;;;;;;;;5113963;28;20034;-82
2022/08/04 01:06:56;;;;;;;42.67;5.28;;;;;;;;;;5115227;28;20027;-82
2022/08/04 01:09:25;;;;;;;39.55;4.30;;;;;;;;;;5115052;28;20110;-82
2022/08/04 01:12:00;;;;;;;29.67;5.35;;;;;;;;;;5115045;28;20076;-82
2022/08/04 01:14:36;;;;;;;12.65;3.28;;;;;;;;;;5115230;28;20026;-82
2022/08/04 01:17:19;;;;;;;10.10;3.28;;;;;;;;;;5115032;28;20396;-82
2022/08/04 01:20:07;;;;;;;8.98;3.22;;;;;;;;;;5096539;28;20465;-82
2022/08/04 01:22:33;;;;;;;10.55;3.08;;;;;;;;;;5115102;28;20431;-82
2022/08/04 01:25:17;;;;;;;7.13;3.10;;;;;;;;;;5114852;28;20027;-82
2022/08/04 01:28:02;;;;;;;10.25;3.05;;;;;;;;;;5115065;28;20019;-82
2022/08/04 01:30:29;;;;;;;7.07;3.30;;;;;;;;;;5113544;28;20020;-82
2022/08/04 01:33:05;;;;;;;6.10;2.80;;;;;;;;;;5114282;28;20473;-82
2022/08/04 01:35:36;;;;;;;5.75;3.00;;;;;;;;;;5114355;28;20110;-82
2022/08/04 01:38:16;;;;;;;11.18;3.55;;;;;;;;;;5114742;28;20015;-82
2022/08/04 01:40:42;;;;;;;9.43;2.80;;;;;;;;;;5114826;28;20020;-82
2022/08/04 01:43:09;;;;;;;5.50;2.88;;;;;;;;;;5114526;28;20028;-82
2022/08/04 01:45:37;;;;;;;5.93;3.15;;;;;;;;;;5114683;28;20046;-82
2022/08/04 01:48:03;;;;;;;7.30;3.40;;;;;;;;;;5114576;28;20027;-82
2022/08/04 01:50:33;;;;;;;8.35;2.85;;;;;;;;;;5114218;28;20048;-82
2022/08/04 01:53:00;;;;;;;7.95;3.30;;;;;;;;;;5114543;28;20038;-82
2022/08/04 01:55:27;;;;;;;10.55;3.38;;;;;;;;;;5111119;28;20027;-82
2022/08/04 01:57:53;;;;;;;6.40;3.20;;;;;;;;;;5093869;28;20027;-82
2022/08/04 02:00:25;;;;;;;8.15;3.50;;;;;;;;;;5093848;28;20020;-82
2022/08/04 02:02:51;;;;;;;;;;;;;;;;;;5076330;28;20031;-82
2022/08/04 02:05:18;;;;;;;8.77;4.18;;;;;;;;;;5093628;28;19904;-82
2022/08/04 02:07:50;;;;;;;15.50;4.47;;;;;;;;;;5093930;28;20478;-82
2022/08/04 02:10:29;;;;;;;8.37;4.17;;;;;;;;;;5093601;28;20023;-82
2022/08/04 02:13:10;;;;;;;11.35;3.60;;;;;;;;;;5100754;28;20373;-82
2022/08/04 02:15:49;;;;;;;8.68;3.80;;;;;;;;;;5114182;28;20012;-82
2022/08/04 02:18:30;;;;;;;8.10;3.58;;;;;;;;;;5113804;28;20369;-82
2022/08/04 02:21:02;;;;;;;12.68;4.10;;;;;;;;;;5113926;28;20030;-82
2022/08/04 02:23:28;;;;;;;5.45;3.33;;;;;;;;;;5113850;28;20055;-82
2022/08/04 02:26:00;;;;;;;9.13;3.90;;;;;;;;;;5113739;28;20019;-82
2022/08/04 02:28:35;;;;;;;7.40;4.00;;;;;;;;;;5114188;28;20055;-82
2022/08/04 02:31:01;;;;;;;6.95;3.80;;;;;;;;;;5113642;28;20477;-82
2022/08/04 02:33:31;;;;;;;8.60;4.10;;;;;;;;;;5113589;28;20077;-82
2022/08/04 02:35:59;;;;;;;9.15;4.47;;;;;;;;;;5114047;28;20358;-82
2022/08/04 02:38:35;;;;;;;13.50;4.60;;;;;;;;;;5113435;28;20011;-82
2022/08/04 02:41:01;;;;;;;10.13;4.18;;;;;;;;;;5112216;28;20027;-82
2022/08/04 02:43:29;;;;;;;7.15;4.38;;;;;;;;;;5113448;28;20530;-82
2022/08/04 02:45:56;;;;;;;13.80;5.53;;;;;;;;;;5113474;28;20096;-82
2022/08/04 02:48:24;;;;;;;10.32;4.60;;;;;;;;;;5113445;28;20020;-82
2022/08/04 02:50:51;;;;;;;13.77;4.13;;;;;;;;;;5113219;28;20043;-82
2022/08/04 02:53:17;;;;;;;10.88;5.22;;;;;;;;;;5113591;28;20409;-82
2022/08/04 02:55:44;;;;;;;9.68;4.85;;;;;;;;;;5113874;28;20012;-82
2022/08/04 02:58:12;;;;;;;9.70;5.10;;;;;;;;;;5113372;28;20026;-82
2022/08/04 03:00:38;;;;;;;10.98;4.70;;;;;;;;;;5113843;28;20374;-82
2022/08/04 03:03:23;;;;;;;10.25;5.13;;;;;;;;;;5113810;28;20065;-82
2022/08/04 03:06:14;;;;;;;7.53;5.00;;;;;;;;;;5113243;28;20034;-82
2022/08/04 03:08:43;;;;;;;15.48;5.45;;;;;;;;;;5113543;28;20027;-82
2022/08/04 03:11:38;;;;;;;13.65;5.63;;;;;;;;;;5113437;28;20024;-82
2022/08/04 03:14:09;;;;;;;10.20;5.60;;;;;;;;;;5054817;28;20035;-82
2022/08/04 03:16:39;;;;;;;11.40;5.32;;;;;;;;;;5113124;28;20024;-82
2022/08/04 03:19:28;;;;;;;15.40;6.38;;;;;;;;;;5113244;28;20023;-82
2022/08/04 03:22:12;;;;;;;11.85;5.40;;;;;;;;;;5084447;28;20034;-82
2022/08/04 03:24:51;;;;;;;9.27;5.43;;;;;;;;;;5113125;28;20028;-82
2022/08/04 03:27:35;;;;;;;11.23;5.80;;;;;;;;;;5111832;28;20020;-82
2022/08/04 03:30:07;;;;;;;11.63;5.38;;;;;;;;;;5112987;28;20045;-82
2022/08/04 03:32:48;;;;;;;13.10;5.47;;;;;;;;;;5112025;28;20424;-82
2022/08/04 03:35:36;;;;;;;13.70;5.13;;;;;;;;;;5113208;28;20027;-82
2022/08/04 03:38:20;;;;;;;8.27;5.53;;;;;;;;;;5113036;28;20027;-82
2022/08/04 03:40:49;;;;;;;10.00;5.55;;;;;;;;;;5113180;28;20372;-82
2022/08/04 03:43:34;;;;;;;11.93;6.50;;;;;;;;;;5112932;28;20381;-82
2022/08/04 03:46:03;;;;;;;12.98;5.65;;;;;;;;;;5111994;28;20077;-82
2022/08/04 03:48:47;;;;;;;8.95;5.45;;;;;;;;;;5111711;28;20419;-82
2022/08/04 03:54:04;;;;;;;10.57;6.18;;;;;;;;;;5112955;28;20027;-82
2022/08/04 03:56:33;;;;;;;18.77;6.78;;;;;;;;;;5099083;28;20058;-82
2022/08/04 03:59:05;;;;;;;13.68;6.28;;;;;;;;;;5096171;28;20020;-82
2022/08/04 04:01:35;;;;;;;10.57;6.07;;;;;;;;;;5096153;28;20561;-82
2022/08/04 04:04:19;;;;;;;12.88;6.10;;;;;;;;;;5095990;28;20016;-82
2022/08/04 04:07:04;;;;;;;15.63;6.32;;;;;;;;;;5096267;28;20020;-82
2022/08/04 04:10:02;;;;;;;15.00;6.45;;;;;;;;;;5077621;28;20024;-81
2022/08/04 04:12:43;;;;;;;13.52;6.13;;;;;;;;;;5055216;28;20084;-82
2022/08/04 04:15:28;;;;;;;11.73;6.00;;;;;;;;;;5116246;28;20012;-82
2022/08/04 04:18:04;;;;;;;12.88;6.05;;;;;;;;;;5097757;28;20424;-82
2022/08/04 04:20:42;;;;;;;10.65;5.65;;;;;;;;;;5116300;28;20080;-82
2022/08/04 04:23:21;;;;;;;10.05;6.57;;;;;;;;;;5116191;28;20027;-82
2022/08/04 04:25:47;;;;;;;15.18;6.57;;;;;;;;;;5116128;28;20015;-82
2022/08/04 04:28:22;;;;;;;13.13;6.72;;;;;;;;;;5097660;28;20035;-82
2022/08/04 04:31:16;;;;;;;12.13;6.63;;;;;;;;;;5115855;28;20046;-82
2022/08/04 04:33:54;;;;;;;13.63;5.45;;;;;;;;;;5116008;28;20020;-82
2022/08/04 04:36:23;;;;;;;16.17;5.88;;;;;;;;;;5116000;28;20030;-82
2022/08/04 04:38:57;;;;;;;15.30;6.10;;;;;;;;;;5115755;28;20039;-82
2022/08/04 04:41:23;;;;;;;12.07;5.45;;;;;;;;;;5115964;28;20108;-82
2022/08/04 04:44:07;;;;;;;10.88;5.65;;;;;;;;;;5115620;28;20032;-82
2022/08/04 04:46:39;;;;;;;14.45;6.32;;;;;;;;;;5115723;28;20042;-82
2022/08/04 04:49:05;;;;;;;10.52;5.78;;;;;;;;;;5114534;28;20056;-82
2022/08/04 04:51:44;;;;;;;14.25;5.65;;;;;;;;;;5115497;28;20030;-82
2022/08/04 04:54:10;;;;;;;14.55;6.45;;;;;;;;;;5115511;28;20023;-82
2022/08/04 04:56:48;;;;;;;9.40;4.82;;;;;;;;;;5115383;28;20016;-82
2022/08/04 04:59:16;;;;;;;9.93;5.32;;;;;;;;;;5115586;28;20027;-81
2022/08/04 05:01:54;;;;;;;13.15;5.30;;;;;;;;;;5113999;28;20377;-82
2022/08/04 05:04:23;;;;;;;15.95;5.72;;;;;;;;;;5115592;28;20019;-81
2022/08/04 05:06:55;;;;;;;11.73;5.40;;;;;;;;;;5115306;28;20023;-82
2022/08/04 05:09:21;;;;;;;10.45;5.28;;;;;;;;;;5115161;28;20016;-82
2022/08/04 05:12:08;;;;;;;16.77;5.50;;;;;;;;;;5115127;28;20093;-82
2022/08/04 05:14:37;;;;;;;12.15;5.68;;;;;;;;;;5093344;28;20028;-82
2022/08/04 05:17:12;;;;;;;9.63;4.78;;;;;;;;;;5094686;28;20020;-82
2022/08/04 05:19:38;;;;;;;10.57;5.20;;;;;;;;;;5094582;28;20031;-82
2022/08/04 05:22:08;;;;;;;8.23;4.50;;;;;;;;;;5106337;28;20389;-82
2022/08/04 05:24:37;;;;;;;9.70;4.85;;;;;;;;;;5111413;28;20031;-82
2022/08/04 05:27:09;;;;;;;18.40;4.80;;;;;;;;;;5115119;28;20448;-82
2022/08/04 05:29:36;;;;;;;20.40;5.77;;;;;;;;;;5114950;28;20028;-82
2022/08/04 05:32:07;;;;;;;16.42;4.78;;;;;;;;;;5114974;28;20031;-82
2022/08/04 05:34:41;;;;;;;21.65;5.75;;;;;;;;;;5114721;28;20063;-82
2022/08/04 05:37:08;;;;;;;14.73;4.47;;;;;;;;;;5114734;28;20145;-82
2022/08/04 05:39:43;;;;;;;13.90;4.95;;;;;;;;;;5096238;28;20025;-82
2022/08/04 05:42:11;;;;;;;20.33;4.93;;;;;;;;;;5096201;28;20032;-82
2022/08/04 05:44:37;;;;;;;20.00;6.00;;;;;;;;;;5114802;28;20028;-82
2022/08/04 05:47:04;;;;;;;20.67;4.90;;;;;;;;;;5114561;28;20027;-82
2022/08/04 05:49:32;;;;;;;26.52;6.50;;;;;;;;;;5113935;28;20073;-82
2022/08/04 05:51:59;;;;;;;15.65;5.10;;;;;;;;;;5114373;28;20478;-82
2022/08/04 05:54:26;;;;;;;13.68;5.20;;;;;;;;;;5114207;28;20466;-82
2022/08/04 05:56:53;;;;;;;28.20;7.18;;;;;;;;;;5114391;28;20458;-84
2022/08/04 05:59:20;;;;;;;15.23;4.78;;;;;;;;;;5114162;28;20020;-82
2022/08/04 06:01:46;;;;;;;21.95;5.15;;;;;;;;;;5114716;28;20030;-82
2022/08/04 06:04:13;;;;;;;11.93;4.68;;;;;;;;;;5113886;28;20035;-82
2022/08/04 06:06:39;;;;;;;19.63;4.80;;;;;;;;;;5114351;28;20012;-82
2022/08/04 06:09:05;;;;;;;14.57;4.80;;;;;;;;;;5095719;28;20154;-82
2022/08/04 06:11:32;;;;;;;16.27;4.60;;;;;;;;;;5113930;28;20107;-82
2022/08/04 06:13:59;;;;;;;24.20;5.38;;;;;;;;;;5111864;28;20034;-82
2022/08/04 06:16:28;;;;;;;15.40;5.60;;;;;;;;;;5113711;28;20056;-82
2022/08/04 06:18:56;;;;;;;11.02;4.75;;;;;;;;;;5113440;28;20099;-83
2022/08/04 06:21:24;;;;;;;15.45;5.20;;;;;;;;;;5113515;28;20028;-82
2022/08/04 06:23:51;;;;;;;13.80;5.55;;;;;;;;;;5113739;28;20031;-82
2022/08/04 06:26:21;;;;;;;13.88;5.18;;;;;;;;;;5113672;28;20024;-82
2022/08/04 06:28:48;;;;;;;20.58;4.85;;;;;;;;;;5113687;28;20020;-82
2022/08/04 06:31:30;;;;;;;11.32;5.40;;;;;;;;;;5113635;28;20028;-82
2022/08/04 06:33:57;;;;;;;19.45;5.90;;;;;;;;;;5113804;28;20481;-82
2022/08/04 06:36:24;;;;;;;14.23;5.57;;;;;;;;;;5113538;28;20027;-82
2022/08/04 06:38:50;;;;;;;16.98;5.93;;;;;;;;;;5113565;28;20325;-82
2022/08/04 06:41:16;;;;;;;12.00;5.18;;;;;;;;;;5113569;28;20035;-82
2022/08/04 06:43:43;;;;;;;13.38;5.13;;;;;;;;;;5113338;28;20500;-83
2022/08/04 06:46:09;;;;;;;13.43;6.10;;;;;;;;;;5113478;28;20034;-82
2022/08/04 06:48:36;;;;;;;18.42;6.88;;;;;;;;;;5113377;28;20028;-82
2022/08/04 06:51:02;;;;;;;15.75;6.53;;;;;;;;;;5113121;28;20050;-82
2022/08/04 06:53:29;;;;;;;20.77;6.85;;;;;;;;;;5113450;28;20430;-82
2022/08/04 06:55:56;;;;;;;14.00;6.20;;;;;;;;;;5113353;28;20059;-82
2022/08/04 06:58:22;;;;;;;20.88;7.65;;;;;;;;;;5113294;28;20012;-82
2022/08/04 07:00:49;;;;;;;24.15;7.60;;;;;;;;;;5113403;28;20077;-82
2022/08/04 07:03:16;;;;;;;19.73;7.93;;;;;;;;;;5113216;28;20028;-82
2022/08/04 07:05:42;;;;;;;14.88;7.20;;;;;;;;;;5111587;28;20035;-82
2022/08/04 07:08:11;;;;;;;18.15;7.60;;;;;;;;;;5113440;28;20041;-82
2022/08/04 07:10:38;;;;;;;13.02;6.65;;;;;;;;;;5113329;28;20096;-82
2022/08/04 07:13:06;;;;;;;19.02;6.32;;;;;;;;;;5112999;28;20027;-82
2022/08/04 07:15:32;;;;;;;21.17;6.70;;;;;;;;;;5113194;28;20019;-81
2022/08/04 07:18:00;;;;;;;13.43;6.85;;;;;;;;;;5113165;28;20432;-82
2022/08/04 07:20:27;;;;;;;15.95;5.97;;;;;;;;;;5093270;28;20016;-83
2022/08/04 07:22:54;;;;;;;15.82;6.00;;;;;;;;;;5108018;28;20059;-81
2022/08/04 07:25:20;;;;;;;15.80;6.53;;;;;;;;;;5110751;28;20061;-81
2022/08/04 07:27:46;;;;;;;17.98;6.15;;;;;;;;;;5113030;28;20457;-81
2022/08/04 07:30:12;;;;;;;14.23;5.90;;;;;;;;;;5113081;28;20446;-81
2022/08/04 07:32:41;;;;;;;17.98;6.20;;;;;;;;;;5115090;28;20517;-81
2022/08/04 07:35:08;;;;;;;19.80;5.47;;;;;;;;;;5116834;28;20019;-81
2022/08/04 07:37:34;;;;;;;13.10;5.20;;;;;;;;;;5116665;28;20462;-81
2022/08/04 07:40:00;;;;;;;20.85;6.43;;;;;;;;;;5116810;28;20024;-82
2022/08/04 07:42:26;;;;;;;24.33;5.70;;;;;;;;;;5116815;28;20016;-82
2022/08/04 07:44:53;;;;;;;9.02;5.20;;;;;;;;;;5108931;28;20024;-81
2022/08/04 07:47:19;;;;;;;9.85;5.15;;;;;;;;;;5096465;28;20024;-81
2022/08/04 07:49:45;;;;;;;9.00;5.03;;;;;;;;;;5109956;28;20393;-81
2022/08/04 07:52:12;;;;;;;9.35;5.30;;;;;;;;;;5098625;28;20383;-82
2022/08/04 07:54:39;;;;;;;12.15;4.82;;;;;;;;;;5116682;28;20430;-82
2022/08/04 07:57:05;;;;;;;18.38;5.97;;;;;;;;;;5116727;28;20142;-82
2022/08/04 07:59:32;;;;;;;10.05;5.03;;;;;;;;;;5116625;28;20460;-82
2022/08/04 08:02:02;;;;;;;15.07;5.80;;;;;;;;;;5116526;28;20023;-82
2022/08/04 08:04:28;;;;;;;9.82;4.18;;;;;;;;;;5116370;28;20374;-84
2022/08/04 08:06:54;;;;;;;13.05;4.90;;;;;;;;;;5116646;28;20062;-83
2022/08/04 08:09:20;;;;;;;13.05;5.63;;;;;;;;;;5116246;28;20016;-83
2022/08/04 08:11:47;;;;;;;13.88;4.90;;;;;;;;;;5116059;28;20023;-82
2022/08/04 08:14:14;;;;;;;14.52;5.00;;;;;;;;;;5079703;28;20381;-82
2022/08/04 08:16:40;;;;;;;16.38;4.95;;;;;;;;;;5095745;28;20133;-82
2022/08/04 08:19:07;;;;;;;12.43;4.90;;;;;;;;;;5095788;28;20077;-83
2022/08/04 08:21:33;;;;;;;11.20;3.88;;;;;;;;;;5095960;28;20080;-90
2022/08/04 08:23:59;;;;;;;13.77;4.43;;;;;;;;;;5108733;28;20107;-86
2022/08/04 08:26:26;;;;;;;10.27;3.90;;;;;;;;;;5115523;28;20042;-79
2022/08/04 08:28:52;;;;;;;13.80;4.85;;;;;;;;;;5104509;28;20020;-79
2022/08/04 08:31:18;;;;;;;8.52;4.22;;;;;;;;;;5095010;28;20024;-80
2022/08/04 08:33:46;;;;;;;14.45;4.05;;;;;;;;;;5106903;28;20024;-79
2022/08/04 08:36:30;;;;;;;8.27;3.78;;;;;;;;;;5115419;28;20090;-81
2022/08/04 08:39:06;;;;;;;8.10;3.50;;;;;;;;;;5114671;28;20028;-81
2022/08/04 08:41:43;;;;;;;14.13;3.95;;;;;;;;;;5115342;28;20521;-81
2022/08/04 08:44:24;;;;;;;12.05;3.78;;;;;;;;;;5114952;28;20028;-81
2022/08/04 08:46:59;;;;;;;12.10;3.80;;;;;;;;;;5115828;28;20077;-81
2022/08/04 08:49:37;;;;;;;6.38;2.63;;;;;;;;;;5115373;28;20043;-81
2022/08/04 08:52:21;;;;;;;9.40;2.33;;;;;;;;;;5115238;28;20080;-81
2022/08/04 08:55:06;;;;;;;12.85;2.00;;;;;;;;;;5115075;28;20102;-81
2022/08/04 08:57:37;;;;;;;11.52;2.38;;;;;;;;;;5115393;28;20035;-81
2022/08/04 09:00:15;;;;;;;12.70;2.20;;;;;;;;;;5113242;28;20176;-83
2022/08/04 09:02:44;;;;;;;10.15;2.28;;;;;;;;;;5114627;28;20027;-80
2022/08/04 09:05:24;;;;;;;9.35;2.50;;;;;;;;;;5114346;28;20135;-81
2022/08/04 09:08:09;;;;;;;11.68;2.92;;;;;;;;;;5108143;28;20089;-81
2022/08/04 09:10:58;;;;;;;11.40;2.40;;;;;;;;;;5114790;28;20108;-81
2022/08/04 09:13:48;;;;;;;20.20;2.60;;;;;;;;;;5103860;28;20088;-81
2022/08/04 09:16:17;;;;;;;7.32;2.45;;;;;;;;;;5099865;28;20088;-81
2022/08/04 09:18:56;;;;;;;9.80;2.63;;;;;;;;;;5114416;28;20034;-81
2022/08/04 09:21:25;;;;;;;9.35;2.38;;;;;;;;;;5096386;28;20024;-81
2022/08/04 09:23:57;;;;;;;5.38;2.15;;;;;;;;;;5105974;28;20028;-82
2022/08/04 09:26:33;;;;;;;14.10;2.15;;;;;;;;;;5093966;28;20440;-80
2022/08/04 09:29:02;;;;;;;9.38;2.30;;;;;;;;;;5093788;28;20029;-81
2022/08/04 09:31:34;;;;;;;8.23;2.20;;;;;;;;;;5093450;28;20028;-81
2022/08/04 09:34:05;;;;;;;9.90;1.70;;;;;;;;;;5093162;28;20032;-81
2022/08/04 09:36:52;;;;;;;9.68;1.90;;;;;;;;;;5093875;28;20477;-81
2022/08/04 09:39:18;;;;;;;11.88;2.30;;;;;;;;;;5082939;28;20141;-80
2022/08/04 09:42:03;;;;;;;7.75;2.22;;;;;;;;;;5092790;28;20032;-80
2022/08/04 09:44:38;;;;;;;9.73;2.35;;;;;;;;;;5093374;28;20032;-80
2022/08/04 09:47:08;;;;;;;11.10;2.05;;;;;;;;;;5093303;28;20106;-80
2022/08/04 09:49:46;;;;;;;13.32;2.33;;;;;;;;;;5093236;28;20486;-81
2022/08/04 09:52:26;;;;;;;9.20;1.73;;;;;;;;;;5093545;28;20031;-80
2022/08/04 09:54:57;;;;;;;8.45;2.20;;;;;;;;;;5092690;28;20020;-80
2022/08/04 09:57:26;;;;;;;6.82;1.90;;;;;;;;;;5093460;28;20028;-80
2022/08/04 10:00:04;;;;;;;6.15;1.63;;;;;;;;;;5093465;28;20020;-80
2022/08/04 10:02:37;;;;;;;4.40;1.58;;;;;;;;;;5093294;28;20024;-81
2022/08/04 10:05:04;;;;;;;5.85;1.67;;;;;;;;;;5093414;28;20028;-81
2022/08/04 10:07:49;;;;;;;7.75;2.00;;;;;;;;;;5093324;28;20056;-81
2022/08/04 10:10:20;;;;;;;7.22;1.67;;;;;;;;;;5093226;28;20458;-81
2022/08/04 10:13:01;;;;;;;12.32;1.90;;;;;;;;;;5093754;28;20366;-81
2022/08/04 10:15:31;;;;;;;5.18;1.70;;;;;;;;;;5092086;28;20044;-81
2022/08/04 10:18:12;;;;;;;7.78;1.67;;;;;;;;;;5093198;28;20020;-80
2022/08/04 10:20:47;;;;;;;7.88;1.67;;;;;;;;;;5093154;28;20034;-80
2022/08/04 10:23:31;;;;;;;3.83;1.42;;;;;;;;;;5093158;28;20519;-80
2022/08/04 10:26:00;;;;;;;4.57;1.40;;;;;;;;;;5112760;28;20385;-80
2022/08/04 10:28:27;;;;;;;4.53;1.40;;;;;;;;;;5096852;28;20035;-81
2022/08/04 10:30:58;;;;;;;4.97;1.40;;;;;;;;;;5092572;28;20032;-79
2022/08/04 10:33:27;;;;;;;4.63;1.20;;;;;;;;;;5101879;28;20095;-78
2022/08/04 10:36:01;;;;;;;4.97;1.17;;;;;;;;;;5112171;28;20031;-78
2022/08/04 10:38:27;;;;;;;9.23;1.45;;;;;;;;;;5110515;28;20065;-78
2022/08/04 10:41:12;;;;;;;4.47;1.35;;;;;;;;;;5109629;28;20036;-80
2022/08/04 10:43:45;;;;;;;3.90;1.70;;;;;;;;;;5111703;28;20023;-80
2022/08/04 10:46:16;;;;;;;8.30;1.60;;;;;;;;;;5107802;28;20023;-80
2022/08/04 10:49:02;;;;;;;3.53;1.48;;;;;;;;;;5093459;28;20123;-80
2022/08/04 10:51:31;;;;;;;4.60;1.33;;;;;;;;;;5111993;28;20032;-80
2022/08/04 10:54:03;;;;;;;4.32;1.50;;;;;;;;;;5112351;28;20413;-80
2022/08/04 10:56:34;;;;;;;4.70;1.38;;;;;;;;;;5112111;28;20015;-80
2022/08/04 10:59:03;;;;;;;5.32;1.42;;;;;;;;;;5112177;28;20034;-80
2022/08/04 11:01:33;;;;;;;4.72;1.40;;;;;;;;;;5112159;28;20063;-80
2022/08/04 11:04:08;;;;;;;4.35;1.05;;;;;;;;;;5112037;28;20110;-80
2022/08/04 11:06:34;;;;;;;8.35;1.83;;;;;;;;;;5113102;28;20012;-80
2022/08/04 11:09:01;;;;;;;6.53;1.35;;;;;;;;;;5115855;28;20420;-80
2022/08/04 11:11:31;;;;;;;8.75;1.63;;;;;;;;;;5116252;28;20347;-80
2022/08/04 11:14:00;;;;;;;8.32;1.80;;;;;;;;;;5116849;28;20031;-81
2022/08/04 11:16:27;;;;;;;10.48;2.30;;;;;;;;;;5116452;28;20096;-80
2022/08/04 11:19:08;;;;;;;13.23;5.15;;;;;;;;;;5116864;28;20377;-80
2022/08/04 11:21:37;;;;;;;10.43;4.20;;;;;;;;;;5116459;28;20043;-80
2022/08/04 11:24:23;;;;;;;9.60;4.18;;;;;;;;;;5116601;28;20028;-80
2022/08/04 11:26:49;;;;;;;11.63;4.32;;;;;;;;;;5116376;28;20852;-79
2022/08/04 11:29:26;;;;;;;9.07;6.30;;;;;;;;;;5115360;28;20024;-79
2022/08/04 11:31:53;;;;;;;11.90;5.75;;;;;;;;;;5116433;28;20063;-79
2022/08/04 11:34:20;;;;;;;11.60;4.95;;;;;;;;;;5117565;28;20105;-79
2022/08/04 11:36:50;;;;;;;9.93;3.60;;;;;;;;;;5116954;28;20020;-80
2022/08/04 11:39:33;;;;;;;7.82;3.80;;;;;;;;;;5116827;28;20027;-80
2022/08/04 11:42:07;;;;;;;7.53;3.50;;;;;;;;;;5096387;28;20052;-80
2022/08/04 11:44:47;;;;;;;8.43;2.30;;;;;;;;;;5096913;28;20050;-80
2022/08/04 11:47:25;;;;;;;4.22;2.30;;;;;;;;;;5095385;28;20468;-79
2022/08/04 11:50:04;;;;;;;5.10;2.08;;;;;;;;;;5095894;28;20052;-80
2022/08/04 11:52:31;;;;;;;8.00;2.30;;;;;;;;;;5096151;28;20031;-80
2022/08/04 11:55:02;;;;;;;11.77;2.22;;;;;;;;;;5096024;28;20332;-80
2022/08/04 11:57:28;;;;;;;4.20;1.73;;;;;;;;;;5096219;28;20022;-80
2022/08/04 11:59:55;;;;;;;5.45;1.77;;;;;;;;;;5096423;28;20115;-80
2022/08/04 12:02:32;;;;;;;6.88;1.60;;;;;;;;;;5096230;28;20023;-80
2022/08/04 12:05:03;;;;;;;5.55;1.70;;;;;;;;;;5095980;28;20077;-80
2022/08/04 12:07:39;;;;;;;8.10;1.80;;;;;;;;;;5095988;28;20020;-80
2022/08/04 12:10:14;;;;;;;5.47;2.00;;;;;;;;;;5095814;28;20020;-80
2022/08/04 12:12:54;;;;;;;5.15;1.65;;;;;;;;;;5096398;28;20035;-80
2022/08/04 12:15:26;;;;;;;3.40;1.60;;;;;;;;;;5096319;28;20028;-80
2022/08/04 12:18:11;;;;;;;5.03;1.67;;;;;;;;;;5095030;28;20017;-80
2022/08/04 12:20:47;;;;;;;7.22;1.80;;;;;;;;;;5095980;28;20027;-80
2022/08/04 12:23:32;;;;;;;3.80;1.50;;;;;;;;;;5095699;28;20028;-79
2022/08/04 12:26:02;;;;;;;4.60;1.70;;;;;;;;;;5095829;28;20028;-80
2022/08/04 12:28:33;;;;;;;7.30;1.75;;;;;;;;;;5095607;28;20093;-80
2022/08/04 12:31:02;;;;;;;10.82;2.15;;;;;;;;;;5095515;28;20445;-80
2022/08/04 12:33:34;;;;;;;6.43;2.00;;;;;;;;;;5094164;28;20103;-79
2022/08/04 12:36:15;;;;;;;6.78;1.75;;;;;;;;;;5095844;28;20069;-79
2022/08/04 12:38:46;;;;;;;5.80;1.85;;;;;;;;;;5095549;28;20097;-80
2022/08/04 12:41:15;;;;;;;4.77;1.57;;;;;;;;;;5109635;28;20019;-79
2022/08/04 12:43:42;;;;;;;6.05;1.42;;;;;;;;;;5115914;28;20020;-79
2022/08/04 12:46:12;;;;;;;3.90;1.58;;;;;;;;;;5115943;28;20031;-80
2022/08/04 12:48:39;;;;;;;4.30;1.33;;;;;;;;;;5115600;28;20019;-80
2022/08/04 12:51:10;;;;;;;4.03;1.65;;;;;;;;;;5114797;28;20040;-80
2022/08/04 12:53:37;;;;;;;4.72;1.77;;;;;;;;;;5114085;28;20099;-79
2022/08/04 12:56:04;;;;;;;11.75;1.77;;;;;;;;;;5114591;28;20065;-79
2022/08/04 12:58:32;;;;;;;5.53;2.08;;;;;;;;;;5115559;28;20020;-79
2022/08/04 13:01:00;;;;;;;5.97;1.70;;;;;;;;;;5115694;28;20028;-79
2022/08/04 13:03:30;;;;;;;4.78;1.55;;;;;;;;;;5115931;28;20450;-79
2022/08/04 13:05:56;;;;;;;3.83;1.65;;;;;;;;;;5115370;28;20109;-79
2022/08/04 13:08:23;;;;;;;5.80;1.90;;;;;;;;;;5096830;28;20072;-79
2022/08/04 13:10:51;;;;;;;12.88;1.80;;;;;;;;;;5114876;28;20024;-79
2022/08/04 13:13:18;;;;;;;3.45;1.45;;;;;;;;;;5115124;28;20026;-79
2022/08/04 13:15:55;;;;;;;5.53;1.40;;;;;;;;;;5114859;28;20026;-79
2022/08/04 13:18:22;;;;;;;8.05;2.00;;;;;;;;;;5113298;28;20465;-79
2022/08/04 13:20:48;;;;;;;3.30;1.17;;;;;;;;;;5096629;28;20130;-79
2022/08/04 13:23:15;;;;;;;3.78;1.20;;;;;;;;;;5093634;28;20058;-79
2022/08/04 13:25:43;;;;;;;7.93;1.20;;;;;;;;;;5115118;28;20030;-79
2022/08/04 13:28:13;;;;;;;6.07;1.52;;;;;;;;;;5114703;28;20027;-80
2022/08/04 13:30:40;;;;;;;3.40;1.30;;;;;;;;;;5113836;28;20035;-79
2022/08/04 13:33:06;;;;;;;7.30;1.55;;;;;;;;;;5114456;28;20041;-79
2022/08/04 13:35:33;;;;;;;6.20;1.20;;;;;;;;;;5114737;28;20077;-79
2022/08/04 13:37:59;;;;;;;4.00;1.30;;;;;;;;;;5114517;28;20016;-79
2022/08/04 13:40:26;;;;;;;3.33;1.13;;;;;;;;;;5109154;28;20020;-81
2022/08/04 13:42:54;;;;;;;3.97;1.10;;;;;;;;;;5114818;28;20030;-80
2022/08/04 13:45:21;;;;;;;6.63;1.42;;;;;;;;;;5094439;28;20077;-81
2022/08/04 13:47:50;;;;;;;4.38;1.40;;;;;;;;;;5105544;28;20019;-82
2022/08/04 13:50:22;;;;;;;5.93;1.38;;;;;;;;;;5089061;28;20168;-80
2022/08/04 13:52:51;;;;;;;4.15;1.30;;;;;;;;;;5108297;28;20015;-80
2022/08/04 13:55:29;;;;;;;3.05;1.10;;;;;;;;;;5114018;28;20016;-81
2022/08/04 13:58:01;;;;;;;5.88;1.38;;;;;;;;;;5109566;28;20373;-78
2022/08/04 14:00:37;;;;;;;4.07;1.10;;;;;;;;;;5111079;28;20034;-76
2022/08/04 14:03:05;;;;;;;6.63;1.65;;;;;;;;;;5111986;28;20024;-76
2022/08/04 14:05:31;;;;;;;3.83;1.60;;;;;;;;;;5111759;28;20024;-78
2022/08/04 14:08:08;;;;;;;5.30;1.42;;;;;;;;;;5093230;28;20084;-78
2022/08/04 14:10:35;;;;;;;3.40;1.50;;;;;;;;;;5111704;28;20172;-78
2022/08/04 14:13:03;;;;;;;5.72;1.40;;;;;;;;;;5109247;28;20415;-79
2022/08/04 14:15:31;;;;;;;3.83;1.48;;;;;;;;;;5111903;28;20168;-77
2022/08/04 14:18:17;;;;;;;4.75;1.98;;;;;;;;;;5111552;28;20024;-79
2022/08/04 14:20:57;;;;;;;6.65;1.65;;;;;;;;;;5109835;28;20019;-77
2022/08/04 14:23:24;;;;;;;5.72;1.70;;;;;;;;;;5112289;28;20032;-77
2022/08/04 14:25:50;;;;;;;3.40;1.13;;;;;;;;;;5112007;28;20032;-77
2022/08/04 14:28:27;;;;;;;7.18;1.38;;;;;;;;;;5111609;28;20028;-79
2022/08/04 14:31:08;;;;;;;5.47;1.42;;;;;;;;;;5111556;28;20035;-76
2022/08/04 14:33:41;;;;;;;3.10;1.20;;;;;;;;;;5111743;28;20062;-79
2022/08/04 14:36:08;;;;;;;3.25;1.35;;;;;;;;;;5112013;28;20453;-77
2022/08/04 14:38:41;;;;;;;4.60;1.52;;;;;;;;;;5111688;28;20019;-79
2022/08/04 14:41:07;;;;;;;4.10;1.27;;;;;;;;;;5107053;28;20050;-78
2022/08/04 14:43:40;;;;;;;4.50;1.42;;;;;;;;;;5112166;28;20446;-78
2022/08/04 14:46:06;;;;;;;4.53;1.65;;;;;;;;;;5109637;28;20034;-78
2022/08/04 14:48:32;;;;;;;6.18;1.40;;;;;;;;;;5111864;28;20361;-78
2022/08/04 14:50:58;;;;;;;7.40;1.45;;;;;;;;;;5111718;28;20047;-75
2022/08/04 14:53:28;;;;;;;3.05;1.20;;;;;;;;;;5111428;28;20063;-77
2022/08/04 14:56:00;;;;;;;3.42;1.33;;;;;;;;;;5111366;28;20442;-77
2022/08/04 14:58:27;;;;;;;4.20;1.40;;;;;;;;;;5111186;28;20031;-77
2022/08/04 15:00:55;;;;;;;3.75;1.02;;;;;;;;;;5111441;28;20100;-78
2022/08/04 15:03:23;;;;;;;10.10;3.22;;;;;;;;;;5111806;28;20496;-78
2022/08/04 15:05:49;;;;;;;2.78;1.13;;;;;;;;;;5111147;28;20032;-77
2022/08/04 15:08:15;;;;;;;3.97;1.38;;;;;;;;;;5111731;28;20031;-78